createdAt,value
2022-08-26T00:01:46.485Z,99468.28
2022-08-26T00:04:13.851Z,99438.13
2022-08-26T00:06:42.624Z,99451.63
2022-08-26T00:09:16.211Z,99461.41
2022-08-26T00:11:46.566Z,99417.63
2022-08-26T00:14:15.305Z,99461.53
2022-08-26T00:16:47.974Z,99433.16
2022-08-26T00:19:20.911Z,99413.13
2022-08-26T00:21:49.674Z,99466.09
2022-08-26T00:24:19.009Z,99456.59
2022-08-26T00:26:45.904Z,99432.81
2022-08-26T00:29:13.321Z,99463.63
2022-08-26T00:31:40.744Z,99462.47
2022-08-26T00:34:09.415Z,99446.75
2022-08-26T00:36:37.018Z,99467.94
2022-08-26T00:39:04.663Z,99415.75
2022-08-26T00:41:34.284Z,99436.66
2022-08-26T00:44:00.928Z,99458.56
2022-08-26T00:46:31.386Z,99452.59
2022-08-26T00:49:05.495Z,99420.88
2022-08-26T00:51:46.132Z,99439.81
2022-08-26T00:54:16.267Z,99455.53
2022-08-26T00:57:08.517Z,99462.03
2022-08-26T00:59:45.439Z,99465.78
2022-08-26T01:02:20.068Z,99425.72
2022-08-26T01:04:54.265Z,99424.69
2022-08-26T01:07:22.461Z,99449.06
2022-08-26T01:09:49.993Z,99437.03
2022-08-26T01:12:17.374Z,99425.88
2022-08-26T01:14:49.483Z,99458.63
2022-08-26T01:17:16.634Z,99456.78
2022-08-26T01:19:47.685Z,99460.34
2022-08-26T01:22:19.977Z,99464.59
2022-08-26T01:24:48.202Z,99449.31
2022-08-26T01:27:19.531Z,99432.22
2022-08-26T01:29:49.283Z,99433.44
2022-08-26T01:32:20.004Z,99449.06
2022-08-26T01:34:48.196Z,99443.63
2022-08-26T01:37:18.342Z,99446.25
2022-08-26T01:39:48.552Z,99460.88
2022-08-26T01:42:17.692Z,99468.09
2022-08-26T01:44:52.655Z,99459.47
2022-08-26T01:47:21.516Z,99396.38
2022-08-26T01:49:51.474Z,99460.50
2022-08-26T01:52:27.971Z,99410.63
2022-08-26T01:54:57.081Z,99470.44
2022-08-26T01:57:25.312Z,99453.78
2022-08-26T01:59:55.083Z,99463.56
2022-08-26T02:02:23.003Z,99463.13
2022-08-26T02:04:59.454Z,99401.56
2022-08-26T02:07:27.184Z,99465.91
2022-08-26T02:09:54.218Z,99472.56
2022-08-26T02:12:21.005Z,99473.78
2022-08-26T02:14:54.096Z,99477.78
2022-08-26T02:17:26.144Z,99463.75
2022-08-26T02:19:53.530Z,99470.06
2022-08-26T02:22:24.702Z,99470.88
2022-08-26T02:25:21.394Z,99467.94
2022-08-26T02:27:51.476Z,99449.91
2022-08-26T02:30:22.619Z,99465.66
2022-08-26T02:32:49.789Z,99460.78
2022-08-26T02:35:20.038Z,99461.81
2022-08-26T02:37:49.486Z,99468.50
2022-08-26T02:40:18.927Z,99465.31
2022-08-26T02:42:46.047Z,99441.56
2022-08-26T02:45:13.154Z,99474.66
2022-08-26T02:47:43.528Z,99472.22
2022-08-26T02:50:11.062Z,99461.13
2022-08-26T02:52:37.892Z,99457.13
2022-08-26T02:55:05.199Z,99463.16
2022-08-26T02:57:31.996Z,99442.59
2022-08-26T03:00:00.783Z,99463.78
2022-08-26T03:02:29.159Z,99449.31
2022-08-26T03:04:58.033Z,99445.75
2022-08-26T03:07:30.398Z,99448.59
2022-08-26T03:09:57.983Z,99444.66
2022-08-26T03:12:25.632Z,99464.16
2022-08-26T03:14:53.084Z,99468.31
2022-08-26T03:17:20.995Z,99449.19
2022-08-26T03:19:50.697Z,99456.97
2022-08-26T03:22:19.697Z,99462.41
2022-08-26T03:24:47.239Z,99457.22
2022-08-26T03:27:14.344Z,99427.28
2022-08-26T03:30:00.101Z,99415.09
2022-08-26T03:32:27.118Z,99455.09
2022-08-26T03:34:54.539Z,99432.59
2022-08-26T03:37:21.560Z,99433.97
2022-08-26T03:39:49.352Z,99459.22
2022-08-26T03:42:16.645Z,99463.31
2022-08-26T03:44:43.700Z,99468.53
2022-08-26T03:47:10.423Z,99456.28
2022-08-26T03:49:37.166Z,99439.84
2022-08-26T03:52:04.944Z,99463.22
2022-08-26T03:54:32.878Z,99434.91
2022-08-26T03:56:59.880Z,99477.59
2022-08-26T03:59:27.039Z,99458.59
2022-08-26T04:01:54.959Z,99455.38
2022-08-26T04:04:22.581Z,99436.09
2022-08-26T04:06:50.042Z,99379.88
2022-08-26T04:09:20.881Z,99444.72
2022-08-26T04:11:50.615Z,99413.81
2022-08-26T04:14:23.578Z,99421.69
2022-08-26T04:16:51.906Z,99475.59
2022-08-26T04:19:19.351Z,99462.16
2022-08-26T04:21:47.119Z,99457.53
2022-08-26T04:24:16.203Z,99467.88
2022-08-26T04:26:45.006Z,99458.16
2022-08-26T04:29:18.272Z,99448.97
2022-08-26T04:31:47.964Z,99466.66
2022-08-26T04:34:15.858Z,99460.66
2022-08-26T04:36:43.623Z,99467.22
2022-08-26T04:39:12.270Z,99469.72
2022-08-26T04:41:40.170Z,99464.41
2022-08-26T04:44:06.896Z,99446.78
2022-08-26T04:46:33.811Z,99466.56
2022-08-26T04:49:00.864Z,99453.25
2022-08-26T04:51:28.071Z,99471.66
2022-08-26T04:53:59.243Z,99466.00
2022-08-26T04:56:28.331Z,99432.59
2022-08-26T04:58:55.396Z,99476.41
2022-08-26T05:01:22.902Z,99451.19
2022-08-26T05:03:51.680Z,99477.84
2022-08-26T05:06:19.919Z,99480.63
2022-08-26T05:08:47.111Z,99490.41
2022-08-26T05:11:14.055Z,99485.38
2022-08-26T05:13:41.561Z,99486.22
2022-08-26T05:16:13.851Z,99459.25
2022-08-26T05:18:42.707Z,99478.13
2022-08-26T05:21:23.628Z,99481.44
2022-08-26T05:23:51.493Z,99444.66
2022-08-26T05:26:26.400Z,99485.63
2022-08-26T05:28:55.029Z,99460.13
2022-08-26T05:31:26.175Z,99456.88
2022-08-26T05:33:53.906Z,99481.91
2022-08-26T05:36:23.130Z,99487.13
2022-08-26T05:38:50.175Z,99468.25
2022-08-26T05:41:21.531Z,99496.78
2022-08-26T05:43:48.211Z,99471.88
2022-08-26T05:46:15.579Z,99472.34
2022-08-26T05:48:44.440Z,99484.94
2022-08-26T05:51:12.044Z,99510.66
2022-08-26T05:53:43.784Z,99490.44
2022-08-26T05:56:24.874Z,99485.66
2022-08-26T05:58:51.970Z,99499.97
2022-08-26T06:01:21.610Z,99518.25
2022-08-26T06:03:52.519Z,99511.19
2022-08-26T06:06:29.259Z,99504.09
2022-08-26T06:08:59.165Z,99513.72
2022-08-26T06:11:27.804Z,99448.44
2022-08-26T06:14:03.953Z,99510.03
2022-08-26T06:16:34.535Z,99445.16
2022-08-26T06:19:03.638Z,99512.63
2022-08-26T06:21:39.952Z,99516.47
2022-08-26T06:24:29.517Z,99517.03
2022-08-26T06:27:01.522Z,99492.97
2022-08-26T06:29:30.969Z,99509.00
2022-08-26T06:31:58.386Z,99504.13
2022-08-26T06:34:29.679Z,99518.16
2022-08-26T06:37:02.152Z,99517.09
2022-08-26T06:39:30.845Z,99510.91
2022-08-26T06:41:58.950Z,99512.91
2022-08-26T06:44:26.732Z,99507.25
2022-08-26T06:46:53.644Z,99495.91
2022-08-26T06:49:27.103Z,99516.78
2022-08-26T06:51:58.340Z,99490.53
2022-08-26T06:54:26.471Z,99502.44
2022-08-26T06:56:53.665Z,99476.75
2022-08-26T06:59:21.111Z,99482.16
2022-08-26T07:01:47.814Z,99494.84
2022-08-26T07:04:20.139Z,99502.88
2022-08-26T07:06:50.332Z,99483.00
2022-08-26T07:09:23.837Z,99500.75
2022-08-26T07:11:51.642Z,99502.06
2022-08-26T07:14:21.568Z,99508.88
2022-08-26T07:16:51.358Z,99518.00
2022-08-26T07:19:29.981Z,99522.50
2022-08-26T07:21:57.550Z,99495.22
2022-08-26T07:24:24.325Z,99502.13
2022-08-26T07:26:59.359Z,99510.28
2022-08-26T07:29:26.108Z,99505.78
2022-08-26T07:31:53.591Z,99482.44
2022-08-26T07:34:23.990Z,99504.47
2022-08-26T07:36:51.549Z,99495.91
2022-08-26T07:39:19.025Z,99491.34
2022-08-26T07:41:47.272Z,99509.88
2022-08-26T07:44:15.447Z,99524.03
2022-08-26T07:46:42.431Z,99526.06
2022-08-26T07:49:12.129Z,99503.53
2022-08-26T07:51:39.665Z,99518.75
2022-08-26T07:54:07.007Z,99532.72
2022-08-26T07:56:33.828Z,99481.13
2022-08-26T07:59:00.759Z,99497.09
2022-08-26T08:01:29.626Z,99503.44
2022-08-26T08:03:57.656Z,99514.78
2022-08-26T08:06:27.116Z,99521.03
2022-08-26T08:08:54.450Z,99513.84
2022-08-26T08:11:21.611Z,99502.06
2022-08-26T08:13:49.768Z,99511.03
2022-08-26T08:16:29.083Z,99501.13
2022-08-26T08:18:59.211Z,99483.09
2022-08-26T08:21:27.768Z,99494.06
2022-08-26T08:23:57.219Z,99502.22
2022-08-26T08:26:25.458Z,99502.22
2022-08-26T08:28:57.056Z,99496.28
2022-08-26T08:31:55.839Z,99481.88
2022-08-26T08:34:18.142Z,99494.97
2022-08-26T08:36:46.256Z,99468.53
2022-08-26T08:39:13.598Z,99488.28
2022-08-26T08:42:04.207Z,99491.13
2022-08-26T08:44:31.201Z,99485.41
2022-08-26T08:47:03.776Z,99482.94
2022-08-26T08:49:32.155Z,99478.53
2022-08-26T08:52:05.368Z,99459.22
2022-08-26T08:54:33.782Z,99478.72
2022-08-26T08:57:22.072Z,99486.78
2022-08-26T09:00:02.211Z,99481.63
2022-08-26T09:02:45.862Z,99477.09
2022-08-26T09:05:23.582Z,99476.09
2022-08-26T09:08:12.050Z,99466.84
2022-08-26T09:10:42.936Z,99483.41
2022-08-26T09:13:25.280Z,99477.13
2022-08-26T09:15:59.022Z,99467.28
2022-08-26T09:18:56.547Z,99467.81
2022-08-26T09:21:25.302Z,99457.03
2022-08-26T09:23:55.719Z,99439.00
2022-08-26T09:26:29.286Z,99458.50
2022-08-26T09:29:09.947Z,99458.16
2022-08-26T09:31:39.131Z,99430.53
2022-08-26T09:34:36.095Z,99452.19
2022-08-26T09:37:04.521Z,99462.84
2022-08-26T09:39:38.141Z,99445.56
2022-08-26T09:42:23.017Z,99448.72
2022-08-26T09:44:54.635Z,99442.88
2022-08-26T09:47:32.740Z,99446.25
2022-08-26T09:50:01.514Z,99421.50
2022-08-26T09:52:28.878Z,99436.50
2022-08-26T09:55:09.847Z,99427.81
2022-08-26T09:57:46.456Z,99412.66
2022-08-26T10:00:38.385Z,99415.66
2022-08-26T10:03:10.721Z,99396.28
2022-08-26T10:05:45.188Z,99402.75
2022-08-26T10:08:27.385Z,99407.03
2022-08-26T10:10:57.522Z,99374.34
2022-08-26T10:13:31.343Z,99400.38
2022-08-26T10:16:10.796Z,99385.56
2022-08-26T10:18:45.661Z,99385.03
2022-08-26T10:21:18.310Z,99385.31
2022-08-26T10:23:53.324Z,99385.97
2022-08-26T10:26:30.060Z,99385.94
2022-08-26T10:29:20.525Z,99366.28
2022-08-26T10:32:02.419Z,99380.56
2022-08-26T10:34:33.259Z,99382.84
2022-08-26T10:37:13.522Z,99380.34
2022-08-26T10:40:03.696Z,99383.28
2022-08-26T10:42:40.073Z,99388.19
2022-08-26T10:45:20.070Z,99385.22
2022-08-26T10:48:07.611Z,99384.66
2022-08-26T10:50:39.118Z,99385.56
2022-08-26T10:53:16.691Z,99375.75
2022-08-26T10:55:53.960Z,99366.78
2022-08-26T10:58:35.796Z,99372.50
2022-08-26T11:01:40.775Z,99348.19
2022-08-26T11:04:38.874Z,99362.81
2022-08-26T11:07:38.998Z,99360.06
2022-08-26T11:10:21.064Z,99359.81
2022-08-26T11:12:50.424Z,99350.16
2022-08-26T11:15:20.031Z,99350.75
2022-08-26T11:17:51.519Z,99350.97
2022-08-26T11:20:41.861Z,99342.56
2022-08-26T11:23:23.923Z,99343.59
2022-08-26T11:25:56.960Z,99336.56
2022-08-26T11:28:44.220Z,99334.97
2022-08-26T11:31:26.165Z,99328.66
2022-08-26T11:34:01.873Z,99322.03
2022-08-26T11:36:59.636Z,99315.63
2022-08-26T11:39:29.103Z,99315.06
2022-08-26T11:42:01.465Z,99324.63
2022-08-26T11:44:38.924Z,99326.19
2022-08-26T11:47:11.691Z,99307.38
2022-08-26T11:49:39.181Z,99333.44
2022-08-26T11:52:21.974Z,99340.66
2022-08-26T11:55:03.851Z,99351.97
2022-08-26T11:57:34.231Z,99350.38
2022-08-26T12:00:34.437Z,99331.81
2022-08-26T12:03:07.322Z,99342.34
2022-08-26T12:05:44.847Z,99300.69
2022-08-26T12:08:17.667Z,99303.09
2022-08-26T12:10:45.503Z,99312.34
2022-08-26T12:13:25.010Z,99295.38
2022-08-26T12:15:59.802Z,99288.09
2022-08-26T12:18:31.884Z,99292.66
2022-08-26T12:21:12.232Z,99291.91
2022-08-26T12:23:46.825Z,99283.44
2022-08-26T12:26:30.881Z,99292.09
2022-08-26T12:29:01.023Z,99294.50
2022-08-26T12:31:41.538Z,99286.38
2022-08-26T12:34:17.644Z,99272.25
2022-08-26T12:36:55.569Z,99286.94
2022-08-26T12:39:26.924Z,99295.28
2022-08-26T12:42:21.050Z,99292.78
2022-08-26T12:44:57.948Z,99269.34
2022-08-26T12:47:39.038Z,99291.63
2022-08-26T12:50:23.467Z,99295.19
2022-08-26T12:53:01.257Z,99272.91
2022-08-26T12:55:36.923Z,99284.41
2022-08-26T12:58:16.213Z,99288.94
2022-08-26T13:00:51.340Z,99279.50
2022-08-26T13:03:43.773Z,99270.69
2022-08-26T13:06:22.645Z,99269.34
2022-08-26T13:08:52.787Z,99237.44
2022-08-26T13:11:31.771Z,99249.63
2022-08-26T13:14:06.876Z,99267.25
2022-08-26T13:16:34.827Z,99251.00
2022-08-26T13:19:17.048Z,99241.44
2022-08-26T13:21:47.830Z,99217.47
2022-08-26T13:24:18.922Z,99232.84
2022-08-26T13:26:48.956Z,99218.25
2022-08-26T13:29:15.883Z,99216.84
2022-08-26T13:31:46.921Z,99220.41
2022-08-26T13:34:18.819Z,99218.44
2022-08-26T13:36:46.661Z,99186.94
2022-08-26T13:39:14.330Z,99199.97
2022-08-26T13:41:41.296Z,99168.69
2022-08-26T13:44:08.044Z,99196.84
2022-08-26T13:46:34.989Z,99210.13
2022-08-26T13:49:02.256Z,99214.72
2022-08-26T13:51:30.310Z,99222.63
2022-08-26T13:53:57.609Z,99220.34
2022-08-26T13:56:27.356Z,99220.03
2022-08-26T13:58:54.035Z,99187.91
2022-08-26T14:01:20.750Z,99207.28
2022-08-26T14:03:47.689Z,99189.69
2022-08-26T14:06:15.151Z,99200.00
2022-08-26T14:08:42.411Z,99203.22
2022-08-26T14:11:11.712Z,99203.03
2022-08-26T14:13:41.888Z,99210.41
2022-08-26T14:16:22.106Z,99175.19
2022-08-26T14:18:50.915Z,99189.47
2022-08-26T14:21:18.523Z,99188.81
2022-08-26T14:23:45.331Z,99157.94
2022-08-26T14:26:27.744Z,99194.03
2022-08-26T14:28:57.963Z,99163.78
2022-08-26T14:31:26.847Z,99158.28
2022-08-26T14:33:56.941Z,99151.22
2022-08-26T14:36:30.828Z,99184.22
2022-08-26T14:39:10.269Z,99142.44
2022-08-26T14:41:46.067Z,99161.09
2022-08-26T14:44:24.501Z,99173.09
2022-08-26T14:46:52.807Z,99167.91
2022-08-26T14:49:20.582Z,99151.59
2022-08-26T14:51:47.598Z,99167.31
2022-08-26T14:54:16.137Z,99176.88
2022-08-26T14:56:48.735Z,99170.19
2022-08-26T14:59:17.613Z,99184.28
2022-08-26T15:01:45.368Z,99177.84
2022-08-26T15:04:12.939Z,99180.50
2022-08-26T15:06:39.719Z,99138.69
2022-08-26T15:09:06.522Z,99127.44
2022-08-26T15:11:33.426Z,99175.25
2022-08-26T15:14:00.247Z,99185.09
2022-08-26T15:16:28.979Z,99190.66
2022-08-26T15:18:56.672Z,99199.03
2022-08-26T15:21:24.633Z,99195.16
2022-08-26T15:23:52.816Z,99173.53
2022-08-26T15:26:20.734Z,99190.72
2022-08-26T15:28:48.390Z,99199.66
2022-08-26T15:31:15.423Z,99195.50
2022-08-26T15:33:42.632Z,99176.94
2022-08-26T15:36:10.084Z,99202.41
2022-08-26T15:38:39.494Z,99205.56
2022-08-26T15:41:08.619Z,99213.16
2022-08-26T15:43:37.653Z,99223.47
2022-08-26T15:46:04.889Z,99219.16
2022-08-26T15:48:31.749Z,99187.22
2022-08-26T15:51:01.476Z,99168.75
2022-08-26T15:53:31.218Z,99219.47
2022-08-26T15:55:59.409Z,99244.34
2022-08-26T15:58:27.987Z,99251.72
2022-08-26T16:00:56.244Z,99260.91
2022-08-26T16:03:23.107Z,99218.00
2022-08-26T16:05:50.153Z,99252.22
2022-08-26T16:08:17.238Z,99233.63
2022-08-26T16:10:50.427Z,99225.34
2022-08-26T16:13:19.670Z,99231.50
2022-08-26T16:15:48.047Z,99248.66
2022-08-26T16:18:15.785Z,99269.50
2022-08-26T16:21:08.770Z,99273.25
2022-08-26T16:23:38.946Z,99222.72
2022-08-26T16:26:17.642Z,99288.38
2022-08-26T16:28:44.405Z,99297.25
2022-08-26T16:31:11.183Z,99294.28
2022-08-26T16:33:38.131Z,99304.03
2022-08-26T16:36:05.648Z,99311.19
2022-08-26T16:38:32.615Z,99335.81
2022-08-26T16:41:00.582Z,99281.75
2022-08-26T16:43:27.799Z,99330.56
2022-08-26T16:45:54.653Z,99341.94
2022-08-26T16:48:21.414Z,99329.78
2022-08-26T16:50:48.097Z,99330.44
2022-08-26T16:55:48.050Z,99340.56
2022-08-26T16:58:15.057Z,99383.88
2022-08-26T17:00:41.867Z,99359.25
2022-08-26T17:03:08.818Z,99362.53
2022-08-26T17:05:36.228Z,99380.56
2022-08-26T17:08:04.284Z,99367.63
2022-08-26T17:10:31.213Z,99378.56
2022-08-26T17:12:58.541Z,99375.84
2022-08-26T17:15:25.747Z,99356.63
2022-08-26T17:17:53.552Z,99379.31
2022-08-26T17:20:22.288Z,99377.84
2022-08-26T17:22:51.243Z,99383.75
2022-08-26T17:25:29.684Z,99397.09
2022-08-26T17:30:30.874Z,99383.81
2022-08-26T17:32:57.853Z,99405.97
2022-08-26T17:35:25.317Z,99410.84
2022-08-26T17:37:52.666Z,99426.50
2022-08-26T17:40:21.831Z,99428.13
2022-08-26T17:42:48.682Z,99422.72
2022-08-26T17:45:15.913Z,99436.47
2022-08-26T17:47:43.376Z,99444.34
2022-08-26T17:50:14.188Z,99446.94
2022-08-26T17:52:41.936Z,99438.25
2022-08-26T17:55:11.348Z,99430.13
2022-08-26T17:57:42.393Z,99426.88
2022-08-26T18:00:38.990Z,99424.72
2022-08-26T18:03:05.681Z,99421.25
2022-08-26T18:05:32.445Z,99431.31
2022-08-26T18:07:59.202Z,99445.94
2022-08-26T18:10:26.080Z,99434.09
2022-08-26T18:12:53.070Z,99387.63
2022-08-26T18:15:19.981Z,99444.84
2022-08-26T18:17:46.952Z,99450.75
2022-08-26T18:20:16.909Z,99447.75
2022-08-26T18:22:44.867Z,99439.72
2022-08-26T18:25:12.929Z,99441.66
2022-08-26T18:27:40.622Z,99448.63
2022-08-26T18:30:16.724Z,99457.25
2022-08-26T18:32:44.181Z,99434.91
2022-08-26T18:35:11.717Z,99376.56
2022-08-26T18:37:38.469Z,99477.84
2022-08-26T18:40:08.333Z,99480.25
2022-08-26T18:42:35.846Z,99487.81
2022-08-26T18:45:04.192Z,99485.09
2022-08-26T18:47:31.551Z,99478.09
2022-08-26T18:49:58.274Z,99481.34
2022-08-26T18:52:25.027Z,99507.25
2022-08-26T18:54:55.364Z,99512.94
2022-08-26T18:57:22.248Z,99492.69
2022-08-26T18:59:49.167Z,99500.00
2022-08-26T19:02:16.051Z,99458.38
2022-08-26T19:04:42.931Z,99493.22
2022-08-26T19:07:09.905Z,99511.06
2022-08-26T19:09:37.016Z,99539.44
2022-08-26T19:12:05.218Z,99525.31
2022-08-26T19:14:32.480Z,99523.59
2022-08-26T19:17:00.404Z,99493.56
2022-08-26T19:19:27.609Z,99552.78
2022-08-26T19:21:54.412Z,99550.56
2022-08-26T19:24:21.691Z,99550.38
2022-08-26T19:26:57.630Z,99494.66
2022-08-26T19:29:28.603Z,99526.75
2022-08-26T19:31:55.385Z,99548.59
2022-08-26T19:34:22.276Z,99541.25
2022-08-26T19:36:50.395Z,99566.72
2022-08-26T19:39:17.235Z,99565.03
2022-08-26T19:41:44.364Z,99551.75
2022-08-26T19:44:34.310Z,99454.53
2022-08-26T19:47:01.699Z,99546.06
2022-08-26T19:49:28.391Z,99539.31
2022-08-26T19:51:55.172Z,99476.78
2022-08-26T19:54:22.741Z,99436.78
2022-08-26T19:56:49.898Z,99531.69
2022-08-26T19:59:17.474Z,99491.09
2022-08-26T20:01:44.447Z,99508.47
2022-08-26T20:04:12.378Z,99524.19
2022-08-26T20:06:39.688Z,99522.81
2022-08-26T20:09:06.380Z,99511.94
2022-08-26T20:11:33.100Z,99518.44
2022-08-26T20:13:59.786Z,99526.78
2022-08-26T20:16:26.550Z,99505.78
2022-08-26T20:19:28.509Z,99497.72
2022-08-26T20:21:55.271Z,99471.22
2022-08-26T20:24:22.848Z,99534.00
2022-08-26T20:26:49.877Z,99529.63
2022-08-26T20:29:18.242Z,99528.50
2022-08-26T20:31:45.997Z,99534.63
2022-08-26T20:34:15.330Z,99516.78
2022-08-26T20:36:42.947Z,99539.00
2022-08-26T20:39:10.737Z,99547.91
2022-08-26T20:41:37.929Z,99512.69
2022-08-26T20:44:05.185Z,99552.91
2022-08-26T20:46:31.995Z,99549.34
2022-08-26T20:48:58.799Z,99517.38
2022-08-26T20:51:26.739Z,99535.78
2022-08-26T20:53:54.226Z,99549.06
2022-08-26T20:56:24.148Z,99556.94
2022-08-26T20:58:53.224Z,99555.13
2022-08-26T21:01:26.517Z,99537.09
2022-08-26T21:03:55.444Z,99542.53
2022-08-26T21:06:23.336Z,99547.44
2022-08-26T21:08:50.563Z,99541.50
2022-08-26T21:11:18.139Z,99548.53
2022-08-26T21:14:03.773Z,99521.16
2022-08-26T21:16:32.430Z,99501.28
2022-08-26T21:19:00.443Z,99528.81
2022-08-26T21:21:27.573Z,99545.22
2022-08-26T21:23:55.275Z,99530.34
2022-08-26T21:26:22.899Z,99543.63
2022-08-26T21:28:50.500Z,99495.75
2022-08-26T21:31:19.700Z,99502.13
2022-08-26T21:33:46.756Z,99466.59
2022-08-26T21:36:15.026Z,99558.63
2022-08-26T21:38:42.251Z,99535.09
2022-08-26T21:41:12.823Z,99538.63
2022-08-26T21:43:41.925Z,99527.53
2022-08-26T21:46:14.304Z,99558.09
2022-08-26T21:48:57.014Z,99554.00
2022-08-26T21:51:26.720Z,99560.75
2022-08-26T21:53:55.629Z,99543.38
2022-08-26T21:56:24.139Z,99568.78
2022-08-26T21:58:52.508Z,99577.16
2022-08-26T22:01:37.998Z,99558.44
2022-08-26T22:04:07.570Z,99581.22
2022-08-26T22:06:40.827Z,99585.78
2022-08-26T22:09:23.000Z,99594.94
2022-08-26T22:11:51.175Z,99564.56
2022-08-26T22:14:21.950Z,99578.91
2022-08-26T22:16:50.325Z,99599.25
2022-08-26T22:19:19.830Z,99595.84
2022-08-26T22:21:49.945Z,99606.06
2022-08-26T22:24:18.059Z,99580.78
2022-08-26T22:26:45.762Z,99603.00
2022-08-26T22:29:13.626Z,99611.66
2022-08-26T22:31:40.519Z,99521.38
2022-08-26T22:34:10.213Z,99636.16
2022-08-26T22:36:42.908Z,99638.34
2022-08-26T22:39:16.150Z,99640.75
2022-08-26T22:41:44.066Z,99596.94
2022-08-26T22:44:12.114Z,99635.84
2022-08-26T22:46:39.903Z,99636.97
2022-08-26T22:49:09.468Z,99629.16
2022-08-26T22:51:36.343Z,99629.97
2022-08-26T22:54:03.041Z,99611.75
2022-08-26T22:56:30.021Z,99576.50
2022-08-26T22:58:56.791Z,99630.53
2022-08-26T23:01:23.852Z,99633.16
2022-08-26T23:03:50.711Z,99631.75
2022-08-26T23:06:17.433Z,99602.88
2022-08-26T23:08:46.281Z,99640.69
2022-08-26T23:11:14.799Z,99633.63
2022-08-26T23:13:41.477Z,99647.63
2022-08-26T23:16:10.999Z,99571.38
2022-08-26T23:18:38.572Z,99625.13
2022-08-26T23:21:05.927Z,99630.59
2022-08-26T23:23:32.923Z,99645.72
2022-08-26T23:26:03.247Z,99632.22
2022-08-26T23:28:32.916Z,99602.69
2022-08-26T23:31:00.096Z,99594.84
2022-08-26T23:33:46.807Z,99631.69
2022-08-26T23:36:18.058Z,99571.94
2022-08-26T23:38:52.953Z,99565.16
2022-08-26T23:41:22.254Z,99625.97
2022-08-26T23:43:49.320Z,99623.38
2022-08-26T23:46:16.152Z,99613.84
2022-08-26T23:48:42.941Z,99608.66
2022-08-26T23:51:29.600Z,99625.72
2022-08-26T23:53:57.836Z,99644.25
2022-08-26T23:56:25.035Z,99626.28
2022-08-26T23:58:53.876Z,99597.03
